Time;durP1;ratioP1;P1;durP2;ratioP2;P2;SDS_P1;SDS_P2;PMS_P1;PMS_P2;Temp;Humidity;BMP_temperature;BMP_pressure;BME280_temperature;BME280_humidity;BME280_pressure;Samples;Min_cycle;Max_cycle;Signal;HPM_P1;HPM_P2
2023/08/17 00:02:15;;;;;;;8.45;5.15;;;16.40;85.20;;;;;;5092568;28;20044;-83
2023/08/17 00:04:41;;;;;;;8.88;5.25;;;16.40;85.30;;;;;;5058901;28;20392;-82
2023/08/17 00:07:06;;;;;;;7.07;5.20;;;16.40;85.30;;;;;;5058680;28;20043;-83
2023/08/17 00:09:32;;;;;;;8.68;4.63;;;16.40;85.30;;;;;;5092121;28;20040;-82
2023/08/17 00:11:58;;;;;;;6.18;4.57;;;16.40;85.30;;;;;;5075222;28;20044;-84
2023/08/17 00:14:25;;;;;;;6.50;4.40;;;16.40;85.40;;;;;;5075475;28;20040;-82
2023/08/17 00:16:51;;;;;;;5.95;4.47;;;16.40;85.40;;;;;;5059269;28;20039;-84
2023/08/17 00:19:17;;;;;;;7.47;4.57;;;16.30;85.50;;;;;;5075182;28;20043;-85
2023/08/17 00:21:44;;;;;;;6.15;4.32;;;16.30;85.60;;;;;;5075229;28;20048;-84
2023/08/17 00:24:10;;;;;;;6.75;4.43;;;16.30;85.60;;;;;;5078205;28;20040;-82
2023/08/17 00:26:36;;;;;;;6.47;5.22;;;16.20;85.70;;;;;;5078717;28;20098;-82
2023/08/17 00:29:02;;;;;;;8.07;5.63;;;16.20;85.70;;;;;;5062006;28;20044;-83
2023/08/17 00:31:28;;;;;;;10.07;5.50;;;16.20;85.70;;;;;;5095618;28;20097;-83
2023/08/17 00:33:53;;;;;;;10.95;4.00;;;16.20;85.80;;;;;;5062111;28;20035;-81
2023/08/17 00:36:19;;;;;;;11.10;5.38;;;16.20;85.90;;;;;;5045497;28;20036;-82
2023/08/17 00:38:45;;;;;;;8.05;4.65;;;16.10;86.00;;;;;;5078724;28;20039;-83
2023/08/17 00:41:11;;;;;;;6.65;4.03;;;16.10;86.10;;;;;;5061887;28;20143;-84
2023/08/17 00:43:37;;;;;;;9.25;5.10;;;16.00;86.00;;;;;;5045245;28;20048;-84
2023/08/17 00:46:03;;;;;;;9.07;4.72;;;16.00;86.10;;;;;;5045322;28;20040;-84
2023/08/17 00:48:31;;;;;;;10.32;4.90;;;16.00;86.20;;;;;;5095371;28;20047;-84
2023/08/17 00:50:58;;;;;;;8.13;3.88;;;16.00;86.20;;;;;;5062004;28;20051;-84
2023/08/17 00:53:27;;;;;;;6.68;3.90;;;16.00;86.20;;;;;;5078380;28;20055;-85
2023/08/17 00:55:53;;;;;;;7.35;4.13;;;16.00;86.20;;;;;;5095389;28;20047;-84
2023/08/17 00:58:21;;;;;;;7.13;4.43;;;16.00;86.30;;;;;;5078365;28;20040;-83
2023/08/17 01:00:47;;;;;;;9.77;4.68;;;16.00;86.20;;;;;;5061774;28;20510;-81
2023/08/17 01:03:13;;;;;;;5.82;4.10;;;16.00;86.20;;;;;;5044921;28;20040;-85
2023/08/17 01:05:38;;;;;;;8.98;4.93;;;16.00;86.20;;;;;;5061869;28;20075;-83
2023/08/17 01:08:04;;;;;;;6.18;3.67;;;16.00;86.30;;;;;;5061714;28;20515;-84
2023/08/17 01:10:54;;;;;;;5.60;4.03;;;16.00;86.30;;;;;;5061606;28;20677;-85
2023/08/17 01:13:55;;;;;;;6.28;4.00;;;16.00;86.30;;;;;;5077678;28;20087;-85
2023/08/17 01:16:52;;;;;;;6.25;3.28;;;16.00;86.30;;;;;;5077683;28;20052;-85
2023/08/17 01:19:26;;;;;;;6.72;4.57;;;15.90;86.30;;;;;;5077946;28;20093;-83
2023/08/17 01:22:00;;;;;;;5.00;4.25;;;15.90;86.20;;;;;;5077989;28;20090;-82
2023/08/17 01:24:26;;;;;;;6.85;3.80;;;15.80;86.20;;;;;;5077847;28;20036;-80
2023/08/17 01:26:52;;;;;;;7.85;4.30;;;15.80;86.30;;;;;;5061351;28;20040;-82
2023/08/17 01:29:18;;;;;;;8.18;4.22;;;15.80;86.30;;;;;;5061041;28;20036;-82
2023/08/17 01:31:51;;;;;;;12.60;4.07;;;15.70;86.40;;;;;;5077830;28;20147;-82
2023/08/17 01:34:23;;;;;;;8.48;4.65;;;15.70;86.40;;;;;;5076696;28;20067;-84
2023/08/17 01:37:01;;;;;;;8.35;3.30;;;15.70;86.40;;;;;;5094776;28;20044;-84
2023/08/17 01:39:34;;;;;;;5.82;3.08;;;15.70;86.50;;;;;;5094552;28;20040;-84
2023/08/17 01:42:01;;;;;;;4.70;3.13;;;15.70;86.50;;;;;;5094445;28;20108;-83
2023/08/17 01:44:27;;;;;;;7.10;3.17;;;15.70;86.40;;;;;;5077872;28;20035;-83
2023/08/17 01:46:53;;;;;;;5.47;4.40;;;15.70;86.40;;;;;;5044563;28;20036;-83
2023/08/17 01:49:19;;;;;;;6.88;3.70;;;15.70;86.40;;;;;;5094287;28;20043;-82
2023/08/17 01:51:45;;;;;;;6.05;3.97;;;15.70;86.40;;;;;;5077267;28;20036;-84
2023/08/17 01:54:10;;;;;;;7.07;3.95;;;15.70;86.40;;;;;;5060906;28;20047;-84
2023/08/17 01:56:36;;;;;;;6.25;3.70;;;15.70;86.40;;;;;;5077244;28;20043;-85
2023/08/17 01:59:02;;;;;;;8.90;3.80;;;15.70;86.40;;;;;;5060817;28;20123;-83
2023/08/17 02:01:28;;;;;;;7.50;4.60;;;15.60;86.50;;;;;;5060732;28;20038;-86
2023/08/17 02:03:54;;;;;;;6.90;4.68;;;15.70;86.40;;;;;;5060535;28;20697;-84
2023/08/17 02:06:19;;;;;;;7.13;4.30;;;15.60;86.50;;;;;;5077029;28;20071;-83
2023/08/17 02:08:45;;;;;;;5.75;4.65;;;15.60;86.50;;;;;;5076927;28;20086;-84
2023/08/17 02:11:11;;;;;;;8.45;3.92;;;15.50;86.50;;;;;;5060468;28;20127;-83
2023/08/17 02:13:37;;;;;;;8.63;3.88;;;15.60;86.50;;;;;;5060423;28;20136;-85
2023/08/17 02:16:04;;;;;;;4.65;3.85;;;15.50;86.60;;;;;;5077339;28;20629;-84
2023/08/17 02:18:31;;;;;;;6.75;3.55;;;15.50;86.60;;;;;;5093811;28;20036;-82
2023/08/17 02:20:57;;;;;;;5.57;3.33;;;15.50;86.70;;;;;;5060215;28;20078;-83
2023/08/17 02:23:23;;;;;;;6.40;3.70;;;15.50;86.60;;;;;;5060083;28;20076;-84
2023/08/17 02:25:48;;;;;;;11.68;4.90;;;15.50;86.80;;;;;;5076734;28;20039;-85
2023/08/17 02:28:14;;;;;;;6.38;4.05;;;15.50;86.90;;;;;;5077934;28;20059;-83
2023/08/17 02:30:41;;;;;;;8.65;4.18;;;15.50;86.80;;;;;;5060907;28;20079;-83
2023/08/17 02:33:06;;;;;;;4.70;3.50;;;15.50;86.80;;;;;;5092377;28;20046;-84
2023/08/17 02:35:32;;;;;;;7.18;3.50;;;15.50;86.80;;;;;;5060404;28;20040;-84
2023/08/17 02:37:58;;;;;;;6.20;4.63;;;15.50;86.80;;;;;;5059282;28;20048;-81
2023/08/17 02:40:24;;;;;;;6.38;4.35;;;15.50;86.80;;;;;;5092829;28;20048;-81
2023/08/17 02:42:50;;;;;;;6.93;4.22;;;15.50;87.00;;;;;;5075810;28;20048;-84
2023/08/17 02:45:15;;;;;;;9.45;5.07;;;15.40;87.00;;;;;;5076088;28;20032;-83
2023/08/17 02:47:41;;;;;;;8.23;4.32;;;15.40;86.90;;;;;;5058141;28;20093;-84
2023/08/17 02:50:07;;;;;;;8.05;4.97;;;15.40;86.90;;;;;;5042462;28;20048;-83
2023/08/17 02:52:33;;;;;;;8.05;4.00;;;15.40;87.10;;;;;;5075550;28;20044;-82
2023/08/17 02:54:59;;;;;;;8.52;5.00;;;15.40;87.00;;;;;;5075634;28;20123;-83
2023/08/17 02:57:25;;;;;;;7.32;4.43;;;15.30;87.00;;;;;;5075843;28;20080;-83
2023/08/17 02:59:50;;;;;;;11.20;4.95;;;15.30;87.10;;;;;;5075593;28;20407;-85
2023/08/17 03:02:16;;;;;;;7.30;5.10;;;15.30;87.20;;;;;;5058723;28;20040;-82
2023/08/17 03:04:42;;;;;;;6.65;4.85;;;15.30;87.10;;;;;;5075689;28;20040;-82
2023/08/17 03:07:08;;;;;;;8.45;4.57;;;15.30;87.10;;;;;;5092122;28;20043;-84
2023/08/17 03:09:33;;;;;;;7.28;4.85;;;15.30;87.20;;;;;;5075421;28;20047;-84
2023/08/17 03:11:59;;;;;;;11.00;4.95;;;15.30;87.00;;;;;;5075209;28;20047;-83
2023/08/17 03:14:25;;;;;;;5.80;3.92;;;15.30;87.20;;;;;;5058491;28;20043;-82
2023/08/17 03:16:50;;;;;;;7.35;4.80;;;15.30;87.10;;;;;;5092121;28;20088;-82
2023/08/17 03:19:17;;;;;;;6.63;5.20;;;15.30;87.20;;;;;;5042287;28;20048;-82
2023/08/17 03:21:43;;;;;;;8.07;5.38;;;15.20;87.20;;;;;;5075671;28;20049;-81
2023/08/17 03:24:08;;;;;;;8.23;4.97;;;15.20;87.20;;;;;;5058648;28;20450;-83
2023/08/17 03:26:34;;;;;;;7.82;4.30;;;15.20;87.20;;;;;;5075273;28;20135;-84
2023/08/17 03:29:00;;;;;;;8.93;5.82;;;15.20;87.40;;;;;;5058537;28;20079;-84
2023/08/17 03:31:25;;;;;;;6.85;4.60;;;15.20;87.30;;;;;;5075082;28;20090;-82
2023/08/17 03:33:51;;;;;;;8.73;5.32;;;15.20;87.40;;;;;;5058417;28;20184;-84
2023/08/17 03:36:17;;;;;;;9.98;5.10;;;15.20;87.40;;;;;;5075260;28;20042;-84
2023/08/17 03:38:42;;;;;;;8.27;5.35;;;15.20;87.50;;;;;;5075239;28;20378;-83
2023/08/17 03:41:10;;;;;;;7.53;4.78;;;15.20;87.40;;;;;;5091884;28;20101;-84
2023/08/17 03:43:35;;;;;;;7.82;5.40;;;15.20;87.50;;;;;;5075383;28;20032;-85
2023/08/17 03:46:02;;;;;;;7.03;4.88;;;15.20;87.50;;;;;;5091687;28;20557;-83
2023/08/17 03:48:27;;;;;;;10.25;5.35;;;15.30;87.50;;;;;;5058398;28;20051;-85
2023/08/17 03:50:54;;;;;;;6.47;4.93;;;15.20;87.50;;;;;;5058445;28;20040;-85
2023/08/17 03:53:20;;;;;;;8.18;5.75;;;15.20;87.50;;;;;;5058329;28;20040;-84
2023/08/17 03:55:50;;;;;;;7.28;4.60;;;15.30;87.60;;;;;;5074950;28;20441;-85
2023/08/17 03:58:17;;;;;;;6.80;4.47;;;15.30;87.50;;;;;;5059889;28;20122;-82
2023/08/17 04:00:51;;;;;;;7.70;5.25;;;15.20;87.50;;;;;;5078824;28;20048;-85
2023/08/17 04:03:17;;;;;;;;;;;15.20;87.50;;;;;;5096190;28;20548;-84
2023/08/17 04:05:43;;;;;;;7.38;5.10;;;15.20;87.60;;;;;;5062177;28;19916;-85
2023/08/17 04:08:08;;;;;;;5.38;3.83;;;15.20;87.50;;;;;;5062459;28;20036;-86
2023/08/17 04:10:34;;;;;;;5.20;4.15;;;15.20;87.50;;;;;;5045390;28;20040;-84
2023/08/17 04:13:00;;;;;;;9.45;4.40;;;15.20;87.50;;;;;;5045417;28;20047;-84
2023/08/17 04:15:26;;;;;;;12.73;4.28;;;15.20;87.50;;;;;;5078824;28;20040;-87
2023/08/17 04:17:51;;;;;;;6.75;4.80;;;15.20;87.50;;;;;;5078410;28;20484;-83
2023/08/17 04:20:18;;;;;;;7.13;4.50;;;15.20;87.60;;;;;;5078294;28;20032;-85
2023/08/17 04:22:44;;;;;;;8.32;4.15;;;15.30;87.60;;;;;;5061686;28;20048;-85
2023/08/17 04:25:10;;;;;;;7.47;4.85;;;15.30;87.70;;;;;;5078160;28;20043;-83
2023/08/17 04:27:36;;;;;;;6.90;5.10;;;15.30;87.60;;;;;;5044797;28;20042;-81
2023/08/17 04:30:02;;;;;;;6.85;5.05;;;15.30;87.70;;;;;;5094797;28;20126;-82
2023/08/17 04:32:28;;;;;;;5.68;4.28;;;15.30;87.70;;;;;;5094976;28;20089;-79
2023/08/17 04:34:54;;;;;;;9.10;5.38;;;15.40;87.70;;;;;;5078249;28;20044;-80
2023/08/17 04:37:19;;;;;;;6.75;4.70;;;15.30;87.70;;;;;;5078169;28;20036;-82
2023/08/17 04:39:48;;;;;;;9.85;5.00;;;15.40;87.80;;;;;;5045141;28;20044;-82
2023/08/17 04:42:13;;;;;;;9.63;4.63;;;15.40;87.70;;;;;;5077890;28;20086;-81
2023/08/17 04:44:39;;;;;;;9.15;4.93;;;15.40;87.80;;;;;;5094869;28;20110;-82
2023/08/17 04:47:05;;;;;;;6.65;4.95;;;15.40;87.80;;;;;;5078322;28;20040;-81
2023/08/17 04:49:31;;;;;;;7.20;4.07;;;15.50;87.80;;;;;;5077956;28;20480;-81
2023/08/17 04:51:56;;;;;;;12.88;4.72;;;15.50;87.90;;;;;;5077830;28;20047;-82
2023/08/17 04:54:22;;;;;;;7.32;3.78;;;15.50;87.90;;;;;;5077789;28;20032;-81
2023/08/17 04:56:48;;;;;;;6.63;4.18;;;15.50;87.80;;;;;;5094663;28;20036;-82
2023/08/17 04:59:14;;;;;;;7.07;4.13;;;15.50;87.80;;;;;;5061330;28;20237;-83
2023/08/17 05:01:39;;;;;;;5.40;3.80;;;15.60;87.80;;;;;;5044699;28;20511;-83
2023/08/17 05:04:05;;;;;;;6.30;4.25;;;15.60;87.80;;;;;;5077816;28;20044;-80
2023/08/17 05:06:31;;;;;;;5.20;4.18;;;15.60;87.70;;;;;;5077660;28;20511;-82
2023/08/17 05:08:57;;;;;;;9.73;4.30;;;15.60;87.80;;;;;;5044091;28;20040;-82
2023/08/17 05:11:23;;;;;;;6.05;4.03;;;15.60;87.80;;;;;;5094004;28;20044;-82
2023/08/17 05:13:49;;;;;;;5.53;3.45;;;15.60;87.80;;;;;;5060735;28;20599;-83
2023/08/17 05:16:15;;;;;;;9.07;4.45;;;15.60;87.80;;;;;;5077557;28;20040;-82
2023/08/17 05:18:41;;;;;;;6.32;3.88;;;15.60;87.80;;;;;;5073861;28;20055;-82
2023/08/17 05:21:06;;;;;;;8.60;4.10;;;15.70;87.90;;;;;;5041084;28;20131;-82
2023/08/17 05:23:32;;;;;;;6.60;3.55;;;15.70;87.80;;;;;;5073810;28;20556;-80
2023/08/17 05:25:58;;;;;;;5.32;3.47;;;15.70;87.80;;;;;;5040716;28;20178;-83
2023/08/17 05:28:24;;;;;;;6.38;3.35;;;15.70;87.80;;;;;;5057249;28;20048;-81
2023/08/17 05:30:50;;;;;;;7.20;3.13;;;15.80;87.80;;;;;;5057092;28;20036;-85
2023/08/17 05:33:16;;;;;;;2.97;2.03;;;15.80;87.80;;;;;;5073718;28;20439;-83
2023/08/17 05:35:42;;;;;;;4.68;2.30;;;15.80;87.70;;;;;;5057165;28;20037;-82
2023/08/17 05:38:09;;;;;;;4.00;2.03;;;15.90;87.60;;;;;;5057128;28;20048;-83
2023/08/17 05:40:35;;;;;;;4.20;1.90;;;15.90;87.60;;;;;;5069147;28;20484;-84
2023/08/17 05:43:01;;;;;;;6.25;1.98;;;16.00;87.30;;;;;;5093470;28;20086;-82
2023/08/17 05:45:27;;;;;;;3.55;2.10;;;16.00;87.20;;;;;;5076235;28;20036;-82
2023/08/17 05:47:52;;;;;;;4.15;1.83;;;16.10;87.00;;;;;;5073926;28;20036;-81
2023/08/17 05:50:18;;;;;;;4.28;1.88;;;16.10;86.90;;;;;;5093721;28;20043;-82
2023/08/17 05:52:44;;;;;;;3.85;2.00;;;16.20;86.90;;;;;;5093714;28;20123;-80
2023/08/17 05:55:10;;;;;;;5.63;1.85;;;16.20;86.80;;;;;;5093664;28;20480;-82
2023/08/17 05:57:36;;;;;;;3.78;1.80;;;16.30;86.70;;;;;;5076868;28;20039;-82
2023/08/17 06:00:02;;;;;;;4.00;2.47;;;16.30;86.70;;;;;;5057584;28;20032;-82
2023/08/17 06:02:28;;;;;;;4.18;2.35;;;16.40;86.60;;;;;;5059201;28;20051;-82
2023/08/17 06:04:54;;;;;;;4.38;2.03;;;16.50;86.60;;;;;;5092833;28;20040;-81
2023/08/17 06:07:19;;;;;;;5.30;2.50;;;16.50;86.60;;;;;;5075876;28;20032;-79
2023/08/17 06:09:45;;;;;;;6.85;2.42;;;16.60;86.60;;;;;;5059404;28;20589;-80
2023/08/17 06:12:11;;;;;;;4.68;2.17;;;16.70;86.40;;;;;;5075543;28;20044;-82
2023/08/17 06:14:36;;;;;;;2.42;1.80;;;16.70;86.30;;;;;;5092675;28;20039;-79
2023/08/17 06:17:02;;;;;;;2.97;1.58;;;16.70;86.30;;;;;;5092733;28;20495;-78
2023/08/17 06:19:28;;;;;;;3.97;1.88;;;16.80;86.20;;;;;;5092366;28;20115;-79
2023/08/17 06:21:54;;;;;;;4.15;1.80;;;16.80;86.00;;;;;;5075241;28;20040;-82
2023/08/17 06:24:19;;;;;;;3.85;1.77;;;16.90;85.90;;;;;;5075366;28;20089;-82
2023/08/17 06:26:45;;;;;;;4.00;1.75;;;17.00;85.90;;;;;;5076155;28;20055;-80
2023/08/17 06:29:11;;;;;;;4.82;2.03;;;17.00;85.80;;;;;;5059454;28;20079;-83
2023/08/17 06:31:37;;;;;;;3.47;1.50;;;17.10;85.70;;;;;;5092817;28;20047;-83
2023/08/17 06:34:03;;;;;;;4.50;1.63;;;17.20;85.70;;;;;;5093005;28;20122;-81
2023/08/17 06:36:33;;;;;;;7.07;2.15;;;17.30;85.70;;;;;;5092838;28;20036;-82
2023/08/17 06:38:58;;;;;;;5.05;1.98;;;17.40;85.50;;;;;;5092870;28;20051;-81
2023/08/17 06:41:25;;;;;;;4.18;1.77;;;17.50;85.30;;;;;;5092526;28;20488;-79
2023/08/17 06:43:51;;;;;;;3.45;1.83;;;17.50;85.20;;;;;;5075766;28;20069;-82
2023/08/17 06:46:17;;;;;;;4.47;1.75;;;17.60;85.10;;;;;;5059044;28;20039;-80
2023/08/17 06:48:43;;;;;;;5.20;2.15;;;17.70;85.00;;;;;;5059039;28;20040;-80
2023/08/17 06:51:09;;;;;;;5.32;2.17;;;17.70;84.90;;;;;;5059143;28;20036;-81
2023/08/17 06:53:35;;;;;;;5.20;1.70;;;17.70;84.90;;;;;;5075381;28;20055;-79
2023/08/17 06:56:01;;;;;;;3.75;2.10;;;17.80;84.70;;;;;;5059121;28;20071;-78
2023/08/17 06:58:27;;;;;;;4.40;2.00;;;17.90;84.50;;;;;;5075488;28;20047;-79
2023/08/17 07:00:52;;;;;;;7.28;1.70;;;17.90;84.30;;;;;;5092251;28;20036;-81
2023/08/17 07:03:18;;;;;;;5.35;1.70;;;18.00;84.30;;;;;;5092412;28;20047;-81
2023/08/17 07:05:44;;;;;;;3.85;1.75;;;18.00;84.10;;;;;;5075666;28;20043;-80
2023/08/17 07:08:10;;;;;;;6.00;1.60;;;18.10;84.00;;;;;;5075375;28;20031;-82
2023/08/17 07:10:36;;;;;;;2.78;1.38;;;18.20;83.90;;;;;;5092968;28;20387;-81
2023/08/17 07:13:03;;;;;;;4.38;1.95;;;18.30;83.80;;;;;;5091923;28;20047;-80
2023/08/17 07:15:30;;;;;;;3.42;1.20;;;18.40;83.50;;;;;;5042519;28;20480;-81
2023/08/17 07:17:55;;;;;;;3.65;1.50;;;18.50;82.80;;;;;;5075218;28;20032;-80
2023/08/17 07:20:21;;;;;;;2.25;1.42;;;18.70;82.70;;;;;;5075128;28;20106;-81
2023/08/17 07:22:47;;;;;;;3.83;1.75;;;18.80;82.50;;;;;;5075054;28;20036;-80
2023/08/17 07:25:13;;;;;;;3.67;1.52;;;18.90;81.70;;;;;;5075329;28;20071;-82
2023/08/17 07:27:39;;;;;;;5.47;2.10;;;19.00;81.20;;;;;;5092114;28;20048;-78
2023/08/17 07:30:05;;;;;;;3.35;1.52;;;19.10;80.70;;;;;;5075353;28;20079;-80
2023/08/17 07:32:33;;;;;;;3.05;1.20;;;19.20;80.40;;;;;;5091152;28;20072;-80
2023/08/17 07:34:59;;;;;;;5.10;1.42;;;19.20;80.00;;;;;;5091857;28;20114;-79
2023/08/17 07:37:32;;;;;;;4.35;1.30;;;19.30;79.70;;;;;;5075297;28;20130;-78
2023/08/17 07:39:57;;;;;;;4.75;0.95;;;19.40;79.40;;;;;;5076098;28;20071;-78
2023/08/17 07:42:23;;;;;;;3.90;1.48;;;19.40;79.00;;;;;;5091578;28;20060;-77
2023/08/17 07:44:49;;;;;;;2.55;1.30;;;19.40;78.40;;;;;;5092190;28;20059;-83
2023/08/17 07:47:15;;;;;;;4.65;1.45;;;19.40;78.40;;;;;;5091776;28;20036;-81
2023/08/17 07:49:40;;;;;;;2.33;1.40;;;19.40;77.90;;;;;;5074999;28;20036;-82
2023/08/17 07:52:06;;;;;;;3.35;1.27;;;19.40;77.70;;;;;;5074965;28;20040;-80
2023/08/17 07:54:32;;;;;;;3.05;1.35;;;19.40;77.80;;;;;;5075353;28;20036;-80
2023/08/17 07:56:58;;;;;;;2.90;0.95;;;19.30;77.60;;;;;;5076379;28;20050;-81
2023/08/17 07:59:24;;;;;;;3.88;1.40;;;19.20;77.70;;;;;;5058632;28;20032;-81
2023/08/17 08:01:49;;;;;;;2.90;1.13;;;19.20;77.60;;;;;;5074973;28;20044;-81
2023/08/17 08:04:15;;;;;;;3.95;1.10;;;19.20;77.70;;;;;;5091499;28;20091;-82
2023/08/17 08:06:41;;;;;;;6.32;1.30;;;19.20;77.90;;;;;;5075114;28;20046;-82
2023/08/17 08:09:07;;;;;;;4.43;1.35;;;19.30;77.90;;;;;;5074974;28;20044;-83
2023/08/17 08:11:33;;;;;;;3.42;1.05;;;19.40;77.80;;;;;;5091631;28;20076;-82
2023/08/17 08:13:59;;;;;;;4.65;1.10;;;19.60;77.70;;;;;;5074568;28;20500;-81
2023/08/17 08:16:24;;;;;;;3.65;1.17;;;19.70;77.30;;;;;;5057850;28;20036;-81
2023/08/17 08:18:50;;;;;;;3.42;1.08;;;19.90;77.30;;;;;;5091806;28;20036;-81
2023/08/17 08:21:16;;;;;;;3.63;0.95;;;20.20;77.10;;;;;;5091296;28;20043;-81
2023/08/17 08:23:42;;;;;;;2.78;1.23;;;20.30;75.60;;;;;;5074838;28;20040;-79
2023/08/17 08:26:07;;;;;;;5.00;1.60;;;20.40;76.10;;;;;;5074595;28;20040;-82
2023/08/17 08:28:33;;;;;;;1.70;0.90;;;20.60;76.00;;;;;;5074724;28;20036;-81
2023/08/17 08:31:05;;;;;;;3.15;1.17;;;20.70;75.70;;;;;;5074599;28;20105;-82
2023/08/17 08:33:31;;;;;;;1.75;1.10;;;20.60;74.40;;;;;;5058090;28;20032;-80
2023/08/17 08:35:57;;;;;;;3.83;1.13;;;20.60;74.70;;;;;;5091425;28;20119;-78
2023/08/17 08:38:22;;;;;;;3.35;1.17;;;20.50;74.80;;;;;;5091562;28;20102;-81
2023/08/17 08:40:48;;;;;;;5.38;1.20;;;20.40;74.60;;;;;;5074259;28;20052;-80
2023/08/17 08:43:15;;;;;;;2.53;1.10;;;20.30;74.90;;;;;;5091088;28;20055;-82
2023/08/17 08:45:45;;;;;;;5.28;1.40;;;20.30;75.20;;;;;;5078347;28;20142;-79
2023/08/17 08:48:15;;;;;;;6.05;1.20;;;20.20;75.60;;;;;;5095212;28;20144;-77
2023/08/17 08:50:41;;;;;;;4.15;1.63;;;20.30;75.00;;;;;;5094652;28;20055;-77
2023/08/17 08:53:22;;;;;;;6.43;1.30;;;20.30;75.30;;;;;;5094628;28;20042;-76
2023/08/17 08:55:57;;;;;;;3.00;1.20;;;20.50;75.30;;;;;;5095386;28;20040;-77
2023/08/17 08:58:28;;;;;;;3.58;1.23;;;20.70;75.10;;;;;;5095797;28;20063;-77
2023/08/17 09:00:54;;;;;;;4.93;1.27;;;20.90;75.00;;;;;;5094529;28;20101;-79
2023/08/17 09:03:21;;;;;;;3.30;1.30;;;21.10;74.80;;;;;;5068354;28;20040;-79
2023/08/17 09:05:48;;;;;;;2.28;0.80;;;21.30;74.80;;;;;;5091697;28;20040;-79
2023/08/17 09:08:15;;;;;;;5.93;1.23;;;21.50;74.00;;;;;;5073805;28;20154;-80
2023/08/17 09:10:42;;;;;;;3.10;0.90;;;21.50;72.10;;;;;;5072526;28;20048;-79
2023/08/17 09:13:08;;;;;;;2.50;1.25;;;21.50;72.10;;;;;;5074444;28;20450;-80
2023/08/17 09:15:34;;;;;;;7.55;1.48;;;21.60;72.20;;;;;;5091932;28;20393;-79
2023/08/17 09:18:00;;;;;;;2.50;1.55;;;21.60;72.00;;;;;;5091991;28;20036;-79
2023/08/17 09:20:45;;;;;;;2.38;1.10;;;21.60;71.50;;;;;;5088783;28;20093;-79
2023/08/17 09:23:13;;;;;;;4.18;1.10;;;21.40;70.80;;;;;;5090933;28;20040;-79
2023/08/17 09:25:40;;;;;;;3.47;1.25;;;21.30;71.70;;;;;;5092292;28;20044;-80
2023/08/17 09:28:17;;;;;;;3.50;1.35;;;21.30;72.20;;;;;;5058865;28;20528;-80
2023/08/17 09:30:53;;;;;;;4.90;1.83;;;21.50;72.60;;;;;;5091888;28;20048;-79
2023/08/17 09:33:26;;;;;;;7.00;1.83;;;21.60;72.40;;;;;;5053621;28;20431;-79
2023/08/17 09:35:54;;;;;;;2.00;1.10;;;21.70;72.30;;;;;;5085271;28;20036;-80
2023/08/17 09:38:20;;;;;;;3.53;1.38;;;21.80;72.00;;;;;;5086572;28;20404;-79
2023/08/17 09:40:47;;;;;;;9.73;1.90;;;21.70;71.60;;;;;;5086618;28;20075;-80
2023/08/17 09:43:14;;;;;;;3.70;1.13;;;21.60;71.80;;;;;;5051872;28;20040;-81
2023/08/17 09:45:40;;;;;;;3.83;1.40;;;21.50;71.90;;;;;;5069600;28;20056;-80
2023/08/17 09:48:08;;;;;;;4.75;1.33;;;21.50;72.00;;;;;;5069459;28;20075;-81
2023/08/17 09:50:35;;;;;;;4.28;1.52;;;21.50;72.50;;;;;;5069033;28;20108;-80
2023/08/17 09:53:04;;;;;;;4.05;1.10;;;21.50;73.00;;;;;;5067679;28;20907;-80
2023/08/17 09:55:34;;;;;;;2.42;1.10;;;21.50;72.60;;;;;;5085088;28;20040;-81
2023/08/17 09:58:00;;;;;;;4.20;1.20;;;21.50;72.40;;;;;;5086074;28;20048;-79
2023/08/17 10:00:30;;;;;;;4.97;1.40;;;21.60;72.40;;;;;;5085871;28;20075;-80
2023/08/17 10:02:57;;;;;;;2.90;1.10;;;21.70;72.50;;;;;;5066703;28;20036;-81
2023/08/17 10:05:26;;;;;;;1.98;1.35;;;22.10;72.20;;;;;;5061819;28;20043;-79
2023/08/17 10:07:54;;;;;;;2.33;1.42;;;22.30;71.60;;;;;;5067492;28;20071;-79
2023/08/17 10:10:26;;;;;;;3.80;1.38;;;22.30;70.60;;;;;;5064762;28;20937;-81
2023/08/17 10:13:08;;;;;;;6.00;1.40;;;22.20;70.80;;;;;;5067811;28;20400;-81
2023/08/17 10:15:38;;;;;;;3.08;1.17;;;22.10;70.70;;;;;;5068880;28;20044;-81
2023/08/17 10:18:07;;;;;;;6.70;1.60;;;22.00;70.90;;;;;;5085163;28;20408;-80
2023/08/17 10:20:35;;;;;;;5.00;1.60;;;21.90;71.10;;;;;;5085670;28;20056;-80
2023/08/17 10:23:18;;;;;;;4.07;1.52;;;21.90;71.30;;;;;;5083730;28;20503;-79
2023/08/17 10:25:45;;;;;;;3.80;1.15;;;21.90;70.80;;;;;;5085104;28;20054;-80
2023/08/17 10:28:11;;;;;;;3.65;1.50;;;21.80;71.10;;;;;;5085377;28;20385;-80
2023/08/17 10:30:38;;;;;;;3.65;2.05;;;21.70;71.10;;;;;;5068989;28;20538;-80
2023/08/17 10:33:05;;;;;;;4.93;1.90;;;21.70;71.50;;;;;;5067122;28;20051;-80
2023/08/17 10:35:33;;;;;;;5.55;1.70;;;21.90;72.10;;;;;;5085050;28;20087;-80
2023/08/17 10:37:59;;;;;;;5.63;1.40;;;22.10;71.40;;;;;;5066286;28;20044;-81
2023/08/17 10:40:34;;;;;;;5.15;1.38;;;22.10;71.30;;;;;;5067664;28;20048;-80
2023/08/17 10:43:00;;;;;;;4.25;1.58;;;22.10;71.10;;;;;;5082784;28;20058;-80
2023/08/17 10:45:30;;;;;;;4.13;1.50;;;22.00;70.50;;;;;;5067983;28;20036;-81
2023/08/17 10:48:26;;;;;;;5.22;1.77;;;22.00;70.50;;;;;;5065790;28;20079;-80
2023/08/17 10:51:05;;;;;;;3.40;1.60;;;21.90;70.50;;;;;;5078029;28;20556;-81
2023/08/17 10:53:35;;;;;;;2.67;1.58;;;21.90;71.10;;;;;;5050500;28;20777;-80
2023/08/17 10:56:06;;;;;;;4.13;1.50;;;22.00;71.10;;;;;;5084454;28;20067;-80
2023/08/17 10:58:32;;;;;;;3.72;1.02;;;22.00;71.10;;;;;;5084634;28;20545;-81
2023/08/17 11:00:58;;;;;;;3.47;1.42;;;22.10;71.20;;;;;;5083812;28;20504;-80
2023/08/17 11:03:24;;;;;;;3.92;1.30;;;22.10;70.80;;;;;;5066964;28;20056;-80
2023/08/17 11:05:58;;;;;;;4.55;1.73;;;22.10;70.40;;;;;;5072540;28;20094;-82
2023/08/17 11:08:47;;;;;;;5.18;1.52;;;22.10;70.20;;;;;;5074611;28;20109;-82
2023/08/17 11:11:14;;;;;;;4.93;1.50;;;22.10;70.50;;;;;;5077263;28;20044;-82
2023/08/17 11:13:44;;;;;;;4.10;1.52;;;22.00;70.70;;;;;;5075285;28;20036;-81
2023/08/17 11:16:12;;;;;;;5.32;1.70;;;22.10;71.10;;;;;;5075146;28;20484;-81
2023/08/17 11:18:37;;;;;;;5.63;2.00;;;22.10;70.70;;;;;;5075023;28;20075;-80
2023/08/17 11:21:05;;;;;;;4.53;1.50;;;22.30;70.80;;;;;;5091119;28;20075;-80
2023/08/17 11:23:32;;;;;;;2.55;1.50;;;22.40;70.80;;;;;;5091423;28;20097;-79
2023/08/17 11:25:58;;;;;;;8.05;2.58;;;22.50;70.70;;;;;;5091543;28;20063;-82
2023/08/17 11:28:24;;;;;;;7.53;2.00;;;22.70;70.40;;;;;;5075088;28;20547;-81
2023/08/17 11:31:01;;;;;;;4.45;1.85;;;22.90;70.20;;;;;;5091768;28;20523;-81
2023/08/17 11:33:29;;;;;;;4.30;1.52;;;22.90;70.10;;;;;;5058654;28;20503;-80
2023/08/17 11:35:58;;;;;;;3.67;1.58;;;23.00;69.90;;;;;;5075074;28;20047;-80
2023/08/17 11:38:25;;;;;;;5.40;1.63;;;23.00;69.80;;;;;;5058201;28;20544;-80
2023/08/17 11:40:52;;;;;;;5.10;1.67;;;22.90;69.60;;;;;;5058564;28;20067;-81
2023/08/17 11:43:20;;;;;;;4.60;1.80;;;22.90;69.80;;;;;;5074840;28;20036;-81
2023/08/17 11:45:46;;;;;;;6.63;2.08;;;22.90;69.70;;;;;;5074951;28;20118;-81
2023/08/17 11:48:12;;;;;;;5.93;1.88;;;22.90;69.60;;;;;;5075007;28;20028;-82
2023/08/17 11:50:39;;;;;;;4.85;1.60;;;22.90;69.30;;;;;;5091333;28;20109;-85
2023/08/17 11:53:05;;;;;;;9.45;2.10;;;22.70;69.40;;;;;;5053989;28;20044;-85
2023/08/17 11:55:31;;;;;;;2.90;1.45;;;22.70;70.00;;;;;;5083716;28;20036;-84
2023/08/17 11:57:56;;;;;;;7.88;2.33;;;22.70;70.20;;;;;;5087375;28;20101;-83
2023/08/17 12:00:22;;;;;;;5.45;1.85;;;22.90;70.20;;;;;;5090180;28;20101;-83
2023/08/17 12:02:49;;;;;;;4.00;1.42;;;23.20;69.70;;;;;;5074900;28;20043;-81
2023/08/17 12:05:23;;;;;;;5.75;1.92;;;23.30;68.90;;;;;;5057713;28;20044;-84
2023/08/17 12:07:54;;;;;;;5.88;1.40;;;23.50;68.70;;;;;;5090731;28;20044;-83
2023/08/17 12:10:22;;;;;;;4.80;1.65;;;23.60;68.20;;;;;;5091601;28;20122;-82
2023/08/17 12:12:48;;;;;;;4.00;1.85;;;23.70;67.90;;;;;;5074551;28;20130;-83
2023/08/17 12:15:16;;;;;;;5.32;1.73;;;23.70;67.40;;;;;;5091782;28;20472;-80
2023/08/17 12:17:49;;;;;;;8.15;1.85;;;23.60;66.80;;;;;;5091508;28;20036;-81
2023/08/17 12:20:19;;;;;;;5.47;1.97;;;23.50;67.50;;;;;;5077970;28;20050;-79
2023/08/17 12:22:46;;;;;;;9.80;2.30;;;23.40;67.80;;;;;;5095261;28;20496;-80
2023/08/17 12:25:13;;;;;;;5.43;2.22;;;23.30;67.70;;;;;;5095239;28;20496;-81
2023/08/17 12:27:39;;;;;;;3.90;1.73;;;23.20;68.70;;;;;;5095257;28;20038;-83
2023/08/17 12:30:11;;;;;;;6.97;1.85;;;23.10;68.90;;;;;;5095176;28;20044;-82
2023/08/17 12:32:37;;;;;;;6.60;2.47;;;23.10;68.90;;;;;;5095134;28;20089;-83
2023/08/17 12:35:03;;;;;;;7.47;1.63;;;23.10;69.50;;;;;;5061643;28;20430;-82
2023/08/17 12:37:29;;;;;;;3.45;2.08;;;23.10;69.70;;;;;;5095083;28;20097;-83
2023/08/17 12:39:55;;;;;;;5.43;2.00;;;23.20;70.00;;;;;;5078422;28;20028;-82
2023/08/17 12:42:21;;;;;;;4.88;1.95;;;23.30;69.40;;;;;;5077906;28;20052;-83
2023/08/17 12:44:47;;;;;;;8.10;1.90;;;23.20;69.50;;;;;;5078071;28;20043;-86
2023/08/17 12:47:13;;;;;;;5.65;1.88;;;23.10;69.40;;;;;;5095069;28;20044;-83